CEQ3 weather

Camrose Airport
Camrose, Alberta, Canada

Public forecast

Using degrees Celsius for public forecast. Weather courtesy of forecast.io.

Closest aviation weather report (METAR) to Camrose Airport

Closest report is Edmonton International Airport, 31.9 nm (59.1 km) WNW. Retrieved 2019/11/13 10:00 UTC (58 minutes ago):

CYEG 131000Z 16003KT 15SM FEW045 BKN080 M00/M01 A2987 RMK SC1AC6 SLP148

Closest aviation forecast (TAF) to Camrose Airport

Closest forecast is Edmonton International Airport, 31.9 nm (59.1 km) WNW. Retrieved 2019/11/13 09:41 UTC (1 hour ago):

TAF CYEG 130838Z 1309/1406 18003KT P6SM FEW007 SCT050 BKN080 TEMPO 1309/1312 2SM BR BKN007 BKN050 PROB30 1309/1312 1SM -FZDZ BR FM131200 25005KT P6SM FEW008 BKN070 TEMPO 1312/1314 BKN008 BKN070 FM131400 26010KT P6SM FEW015 SCT070 RMK NXT FCST BY 131200Z